createdAt,value
2018-05-02T00:02:22.824Z,73.30
2018-05-02T00:07:24.297Z,73.30
2018-05-02T00:12:26.340Z,72.20
2018-05-02T00:17:27.863Z,72.90
2018-05-02T00:22:29.387Z,72.50
2018-05-02T00:27:30.892Z,72.80
2018-05-02T00:32:33.285Z,74.30
2018-05-02T00:37:35.558Z,74.80
2018-05-02T00:42:44.672Z,74.40
2018-05-02T00:47:46.398Z,74.40
2018-05-02T00:52:47.923Z,74.30
2018-05-02T00:57:49.431Z,74.00
2018-05-02T01:02:51.086Z,74.60
2018-05-02T01:07:53.330Z,76.70
2018-05-02T01:12:55.068Z,76.60
2018-05-02T01:17:56.652Z,77.30
2018-05-02T01:22:58.184Z,77.30
2018-05-02T01:28:00.440Z,78.10
2018-05-02T01:33:01.943Z,78.10
2018-05-02T01:38:03.462Z,78.70
2018-05-02T01:43:05.025Z,77.80
2018-05-02T01:48:06.623Z,78.10
2018-05-02T01:53:08.162Z,77.80
2018-05-02T01:58:09.698Z,77.30
2018-05-02T02:03:11.444Z,77.40
2018-05-02T02:08:13.953Z,77.70
2018-05-02T02:13:15.532Z,77.50
2018-05-02T02:18:17.048Z,77.20
2018-05-02T02:23:18.559Z,76.90
2018-05-02T02:28:20.154Z,76.80
2018-05-02T02:33:21.799Z,77.30
2018-05-02T02:38:23.311Z,77.30
2018-05-02T02:43:24.839Z,77.70
2018-05-02T02:48:26.581Z,77.60
2018-05-02T02:53:28.855Z,78.30
2018-05-02T02:58:31.145Z,77.60
2018-05-02T03:03:33.419Z,77.50
2018-05-02T03:08:35.023Z,77.50
2018-05-02T03:13:36.712Z,77.60
2018-05-02T03:18:38.228Z,77.80
2018-05-02T03:23:39.969Z,78.20
2018-05-02T03:28:41.491Z,78.10
2018-05-02T03:33:43.739Z,79.60
2018-05-02T03:38:45.268Z,79.50
2018-05-02T03:43:46.926Z,79.20
2018-05-02T03:48:48.419Z,79.50
2018-05-02T03:53:49.931Z,79.70
2018-05-02T03:58:51.464Z,79.90
2018-05-02T04:04:11.307Z,78.80
2018-05-02T04:09:13.588Z,77.40
2018-05-02T04:14:15.902Z,78.00
2018-05-02T04:19:17.382Z,77.80
2018-05-02T04:24:18.925Z,77.90
2018-05-02T04:29:21.285Z,77.40
2018-05-02T04:34:22.767Z,77.40
2018-05-02T04:39:25.041Z,76.80
2018-05-02T04:44:27.508Z,75.90
2018-05-02T04:49:28.999Z,75.70
2018-05-02T04:54:30.674Z,75.00
2018-05-02T04:59:32.961Z,74.10
2018-05-02T05:04:34.596Z,74.10
2018-05-02T05:09:36.325Z,73.30
2018-05-02T05:14:37.987Z,73.80
2018-05-02T05:19:39.656Z,73.70
2018-05-02T05:24:41.155Z,73.00
2018-05-02T05:29:42.644Z,73.40
2018-05-02T05:34:44.173Z,71.90
2018-05-02T05:39:45.824Z,70.10
2018-05-02T05:44:47.339Z,67.90
2018-05-02T05:49:48.859Z,69.40
2018-05-02T05:54:58.182Z,67.80
2018-05-02T05:59:59.991Z,67.60
2018-05-02T06:05:01.536Z,66.90
2018-05-02T06:10:03.092Z,64.80
2018-05-02T06:15:04.955Z,55.30
2018-05-02T06:20:06.662Z,49.70
2018-05-02T06:25:08.931Z,45.30
2018-05-02T06:30:11.218Z,42.70
2018-05-02T06:35:13.619Z,43.50
2018-05-02T06:40:15.975Z,41.20
2018-05-02T06:45:17.525Z,41.00
2018-05-02T06:50:19.139Z,43.20
2018-05-02T06:55:21.487Z,42.30
2018-05-02T07:00:23.027Z,42.20
2018-05-02T07:05:24.540Z,45.40
2018-05-02T07:10:26.240Z,47.50
2018-05-02T07:15:28.635Z,53.20
2018-05-02T07:20:30.406Z,53.90
2018-05-02T07:25:38.820Z,48.10
2018-05-02T07:30:41.131Z,45.00
2018-05-02T07:35:42.769Z,45.00
2018-05-02T07:40:44.555Z,45.50
2018-05-02T07:45:46.828Z,46.20
2018-05-02T07:50:48.522Z,46.10
2018-05-02T07:55:50.035Z,47.60
2018-05-02T08:00:51.579Z,49.20
2018-05-02T08:05:53.135Z,46.00
2018-05-02T08:10:54.852Z,46.20
2018-05-02T08:15:56.364Z,44.00
2018-05-02T08:20:57.882Z,43.00
2018-05-02T08:25:59.455Z,44.20
2018-05-02T08:31:01.020Z,42.90
2018-05-02T08:36:02.755Z,42.80
2018-05-02T08:41:04.291Z,42.20
2018-05-02T08:46:06.567Z,44.60
2018-05-02T08:51:08.384Z,44.50
2018-05-02T08:56:09.932Z,40.50
2018-05-02T09:01:11.531Z,42.20
2018-05-02T09:06:13.069Z,40.40
2018-05-02T09:11:14.584Z,41.30
2018-05-02T09:16:16.131Z,41.50
2018-05-02T09:21:17.783Z,40.40
2018-05-02T09:26:19.288Z,41.50
2018-05-02T09:31:20.816Z,39.70
2018-05-02T09:36:22.450Z,38.20
2018-05-02T09:41:23.983Z,39.40
2018-05-02T09:46:25.688Z,39.60
2018-05-02T09:51:27.210Z,39.60
2018-05-02T09:56:28.842Z,39.10
2018-05-02T10:01:31.150Z,38.20
2018-05-02T10:06:32.728Z,38.20
2018-05-02T10:11:34.271Z,39.10
2018-05-02T10:16:36.687Z,37.50
2018-05-02T10:21:38.228Z,37.50
2018-05-02T10:26:40.505Z,35.60
2018-05-02T10:31:42.781Z,35.00
2018-05-02T10:36:45.120Z,36.70
2018-05-02T10:41:48.276Z,36.60
2018-05-02T10:46:50.534Z,34.00
2018-05-02T10:51:54.605Z,31.20
2018-05-02T10:56:56.520Z,31.00
2018-05-02T11:01:58.503Z,32.20
2018-05-02T11:07:01.220Z,32.10
2018-05-02T11:12:04.017Z,33.40
2018-05-02T11:17:06.855Z,31.50
2018-05-02T11:22:08.404Z,30.50
2018-05-02T11:27:12.742Z,28.80
2018-05-02T11:32:15.469Z,28.80
2018-05-02T11:37:20.227Z,29.20
2018-05-02T11:42:25.169Z,29.60
2018-05-02T11:47:27.332Z,29.70
2018-05-02T11:52:31.932Z,28.80
2018-05-02T11:57:36.176Z,28.90
2018-05-02T12:02:38.361Z,31.00
2018-05-02T12:07:42.641Z,28.50
2018-05-02T12:12:47.213Z,28.10
2018-05-02T12:17:52.407Z,28.10
2018-05-02T12:22:57.299Z,27.80
2018-05-02T12:28:00.724Z,27.80
2018-05-02T12:33:04.347Z,29.20
2018-05-02T12:38:07.472Z,30.00
2018-05-02T12:43:12.203Z,29.90
2018-05-02T12:48:15.100Z,29.90
2018-05-02T12:53:18.468Z,28.80
2018-05-02T12:58:20.228Z,29.30
2018-05-02T13:03:21.877Z,29.90
2018-05-02T13:08:25.708Z,31.50
2018-05-02T13:13:30.544Z,27.60
2018-05-02T13:18:34.887Z,27.60
2018-05-02T13:23:39.570Z,28.60
2018-05-02T13:28:43.430Z,31.80
2018-05-02T13:33:46.338Z,30.30
2018-05-02T13:38:50.255Z,30.30
2018-05-02T13:43:56.228Z,30.00
2018-05-02T13:48:59.471Z,26.80
2018-05-02T13:54:03.472Z,26.60
2018-05-02T13:59:07.572Z,27.50
2018-05-02T14:04:11.678Z,27.40
2018-05-02T14:09:17.690Z,26.80
2018-05-02T14:14:22.795Z,26.00
2018-05-02T14:19:27.592Z,27.50
2018-05-02T14:24:32.054Z,29.20
2018-05-02T14:29:36.376Z,27.80
2018-05-02T14:34:41.683Z,29.20
2018-05-02T14:39:46.374Z,29.20
2018-05-02T14:44:48.738Z,32.00
2018-05-02T14:49:54.186Z,29.70
2018-05-02T14:54:59.230Z,29.70
2018-05-02T15:00:03.699Z,31.50
2018-05-02T15:05:06.107Z,29.90
2018-05-02T15:10:07.773Z,29.80
2018-05-02T15:15:11.968Z,28.10
2018-05-02T15:20:16.504Z,29.90
2018-05-02T15:25:18.858Z,28.70
2018-05-02T15:30:23.195Z,28.00
2018-05-02T15:35:27.803Z,29.60
2018-05-02T15:40:33.395Z,29.40
2018-05-02T15:45:38.020Z,27.80
2018-05-02T15:50:39.599Z,27.80
2018-05-02T15:55:41.314Z,29.40
2018-05-02T16:00:45.113Z,29.00
2018-05-02T16:05:48.710Z,29.00
2018-05-02T16:10:51.970Z,30.40
2018-05-02T16:15:55.556Z,31.30
2018-05-02T16:20:59.234Z,31.40
2018-05-02T16:26:02.644Z,34.80
2018-05-02T16:31:05.854Z,33.70
2018-05-02T16:36:10.065Z,33.00
2018-05-02T16:41:13.921Z,32.20
2018-05-02T16:46:18.083Z,34.10
2018-05-02T16:51:22.180Z,33.60
2018-05-02T16:56:26.266Z,31.00
2018-05-02T17:01:29.307Z,31.10
2018-05-02T17:06:33.596Z,33.30
2018-05-02T17:11:38.289Z,38.20
2018-05-02T17:16:45.149Z,36.00
2018-05-02T17:21:46.932Z,38.10
2018-05-02T17:26:48.492Z,40.40
2018-05-02T17:31:50.159Z,39.70
2018-05-02T17:36:51.728Z,39.30
2018-05-02T17:41:53.345Z,38.80
2018-05-02T17:46:55.076Z,45.00
2018-05-02T17:51:56.604Z,41.70
2018-05-02T17:56:58.195Z,46.00
2018-05-02T18:01:59.724Z,46.20
2018-05-02T18:07:01.325Z,42.20
2018-05-02T18:12:03.217Z,40.40
2018-05-02T18:17:04.740Z,38.00
2018-05-02T18:22:06.294Z,44.10
2018-05-02T18:27:07.888Z,44.70
2018-05-02T18:32:10.240Z,46.00
2018-05-02T18:37:11.829Z,45.90
2018-05-02T18:42:13.377Z,46.70
2018-05-02T18:47:15.012Z,46.10
2018-05-02T18:52:17.429Z,51.50
2018-05-02T18:57:19.143Z,51.30
2018-05-02T19:02:21.551Z,50.00
2018-05-02T19:07:23.527Z,50.00
2018-05-02T19:12:25.201Z,50.10
2018-05-02T19:17:26.759Z,51.40
2018-05-02T19:22:29.507Z,49.40
2018-05-02T19:27:31.463Z,49.80
2018-05-02T19:32:40.100Z,51.10
2018-05-02T19:37:41.714Z,52.50
2018-05-02T19:42:49.483Z,53.30
2018-05-02T19:47:51.013Z,52.50
2018-05-02T19:52:53.354Z,54.90
2018-05-02T19:57:55.007Z,54.80
2018-05-02T20:03:00.539Z,54.70
2018-05-02T20:08:02.229Z,55.60
2018-05-02T20:13:09.904Z,56.30
2018-05-02T20:18:12.187Z,53.70
2018-05-02T20:23:13.873Z,53.60
2018-05-02T20:28:16.186Z,55.60
2018-05-02T20:33:17.752Z,55.50
2018-05-02T20:38:19.356Z,55.20
2018-05-02T20:43:21.037Z,58.40
2018-05-02T20:48:22.749Z,59.70
2018-05-02T20:53:24.343Z,58.30
2018-05-02T20:58:25.987Z,58.20
2018-05-02T21:03:27.488Z,58.90
2018-05-02T21:08:29.233Z,59.40
2018-05-02T21:13:30.753Z,59.10
2018-05-02T21:18:32.469Z,57.80
2018-05-02T21:23:34.013Z,56.50
2018-05-02T21:28:36.301Z,55.90
2018-05-02T21:33:38.592Z,54.70
2018-05-02T21:38:40.984Z,55.40
2018-05-02T21:43:42.587Z,55.30
2018-05-02T21:48:44.226Z,55.60
2018-05-02T21:53:46.617Z,55.60
2018-05-02T21:58:48.195Z,55.60
2018-05-02T22:03:49.762Z,55.80
2018-05-02T22:08:51.250Z,56.40
2018-05-02T22:13:52.796Z,56.30
2018-05-02T22:18:54.357Z,56.80
2018-05-02T22:23:55.888Z,57.60
2018-05-02T22:28:57.592Z,58.20
2018-05-02T22:33:59.900Z,58.90
2018-05-02T22:39:01.464Z,58.90
2018-05-02T22:44:02.996Z,59.40
2018-05-02T22:49:05.285Z,57.60
2018-05-02T22:54:07.603Z,56.70
2018-05-02T22:59:09.175Z,56.70
2018-05-02T23:04:10.700Z,55.10
2018-05-02T23:09:12.235Z,53.00
2018-05-02T23:14:14.532Z,53.30
2018-05-02T23:19:16.052Z,53.00
2018-05-02T23:24:17.563Z,53.30
2018-05-02T23:29:19.088Z,53.60
2018-05-02T23:34:20.598Z,53.60
2018-05-02T23:39:22.157Z,53.90
2018-05-02T23:44:23.715Z,54.60
2018-05-02T23:49:25.325Z,55.90
2018-05-02T23:54:26.949Z,57.50
2018-05-02T23:59:28.539Z,59.10
